createdAt,value
2022-07-29T00:01:04.737Z,6.88
2022-07-29T00:03:32.134Z,6.47
2022-07-29T00:06:00.971Z,5.85
2022-07-29T00:08:28.379Z,6.72
2022-07-29T00:10:55.579Z,6.55
2022-07-29T00:13:32.544Z,6.50
2022-07-29T00:16:04.454Z,6.05
2022-07-29T00:18:32.756Z,6.05
2022-07-29T00:21:01.364Z,5.72
2022-07-29T00:23:29.841Z,6.20
2022-07-29T00:25:57.794Z,6.40
2022-07-29T00:28:25.008Z,6.40
2022-07-29T00:30:52.270Z,5.93
2022-07-29T00:33:19.481Z,6.28
2022-07-29T00:35:47.107Z,6.35
2022-07-29T00:38:18.910Z,5.80
2022-07-29T00:40:46.471Z,6.38
2022-07-29T00:43:14.954Z,5.97
2022-07-29T00:45:42.337Z,5.93
2022-07-29T00:48:09.913Z,6.00
2022-07-29T00:50:37.881Z,6.35
2022-07-29T00:53:07.725Z,5.93
2022-07-29T00:55:36.619Z,6.30
2022-07-29T00:58:03.983Z,5.85
2022-07-29T01:00:31.712Z,6.35
2022-07-29T01:02:59.165Z,5.95
2022-07-29T01:05:48.510Z,5.90
2022-07-29T01:08:16.936Z,6.60
2022-07-29T01:10:46.802Z,6.75
2022-07-29T01:13:15.762Z,6.40
2022-07-29T01:15:49.314Z,6.75
2022-07-29T01:18:22.286Z,6.27
2022-07-29T01:21:34.520Z,6.85
2022-07-29T01:24:32.343Z,6.55
2022-07-29T01:27:15.675Z,6.40
2022-07-29T01:29:52.312Z,6.82
2022-07-29T01:32:28.911Z,6.90
2022-07-29T01:35:01.791Z,7.22
2022-07-29T01:37:34.358Z,7.22
2022-07-29T01:40:04.544Z,7.07
2022-07-29T01:42:36.539Z,6.60
2022-07-29T01:45:12.437Z,7.35
2022-07-29T01:47:54.226Z,7.25
2022-07-29T01:50:27.714Z,6.40
2022-07-29T01:52:59.483Z,5.90
2022-07-29T01:55:30.135Z,6.22
2022-07-29T01:57:59.985Z,5.95
2022-07-29T02:00:31.067Z,6.05
2022-07-29T02:03:00.624Z,6.40
2022-07-29T02:05:29.860Z,5.93
2022-07-29T02:07:59.858Z,6.00
2022-07-29T02:10:30.812Z,6.30
2022-07-29T02:13:00.354Z,6.00
2022-07-29T02:15:33.148Z,6.28
2022-07-29T02:18:03.158Z,5.47
2022-07-29T02:20:32.001Z,5.80
2022-07-29T02:23:00.873Z,5.63
2022-07-29T02:25:37.066Z,6.57
2022-07-29T02:28:07.661Z,5.30
2022-07-29T02:30:40.129Z,5.55
2022-07-29T02:33:08.853Z,6.05
2022-07-29T02:35:36.523Z,6.18
2022-07-29T02:38:23.154Z,5.28
2022-07-29T02:40:52.954Z,4.90
2022-07-29T02:43:21.829Z,5.20
2022-07-29T02:45:53.139Z,5.35
2022-07-29T02:48:23.558Z,5.03
2022-07-29T02:50:55.459Z,5.20
2022-07-29T02:53:26.355Z,5.00
2022-07-29T02:55:58.105Z,5.90
2022-07-29T02:58:29.561Z,5.85
2022-07-29T03:01:00.685Z,5.35
2022-07-29T03:03:31.287Z,5.28
2022-07-29T03:06:00.825Z,5.35
2022-07-29T03:08:28.758Z,4.85
2022-07-29T03:10:56.609Z,5.22
2022-07-29T03:13:24.705Z,42.33
2022-07-29T03:15:53.168Z,32.05
2022-07-29T03:18:22.246Z,6.63
2022-07-29T03:20:49.600Z,5.43
2022-07-29T03:23:20.903Z,5.03
2022-07-29T03:25:48.282Z,4.70
2022-07-29T03:28:15.686Z,5.30
2022-07-29T03:30:44.636Z,5.47
2022-07-29T03:33:13.703Z,5.03
2022-07-29T03:35:42.568Z,5.80
2022-07-29T03:38:09.694Z,5.72
2022-07-29T03:40:39.617Z,5.57
2022-07-29T03:43:07.863Z,6.00
2022-07-29T03:45:35.730Z,5.43
2022-07-29T03:48:08.358Z,6.18
2022-07-29T03:50:36.345Z,5.68
2022-07-29T03:53:05.373Z,5.65
2022-07-29T03:55:37.451Z,5.82
2022-07-29T03:58:05.090Z,6.03
2022-07-29T04:00:33.174Z,6.53
2022-07-29T04:03:00.657Z,7.28
2022-07-29T04:05:27.845Z,7.18
2022-07-29T04:07:54.969Z,8.38
2022-07-29T04:10:31.602Z,7.38
2022-07-29T04:12:59.566Z,7.72
2022-07-29T04:15:30.972Z,7.18
2022-07-29T04:17:59.246Z,7.53
2022-07-29T04:20:26.801Z,7.60
2022-07-29T04:22:54.017Z,6.85
2022-07-29T04:25:21.241Z,7.50
2022-07-29T04:28:01.723Z,8.88
2022-07-29T04:30:29.327Z,7.50
2022-07-29T04:32:56.491Z,7.03
2022-07-29T04:35:23.825Z,7.70
2022-07-29T04:37:50.958Z,9.18
2022-07-29T04:40:18.353Z,9.18
2022-07-29T04:42:46.891Z,8.25
2022-07-29T04:45:16.477Z,7.53
2022-07-29T04:47:49.521Z,7.95
2022-07-29T04:50:16.650Z,8.18
2022-07-29T04:52:45.038Z,8.63
2022-07-29T04:55:12.194Z,8.60
2022-07-29T04:57:39.319Z,8.40
2022-07-29T05:00:08.179Z,7.78
2022-07-29T05:02:36.743Z,8.20
2022-07-29T05:05:04.490Z,8.30
2022-07-29T05:07:31.704Z,8.50
2022-07-29T05:09:58.961Z,8.00
2022-07-29T05:12:26.393Z,8.50
2022-07-29T05:14:53.555Z,8.48
2022-07-29T05:17:20.718Z,9.88
2022-07-29T05:19:49.380Z,10.55
2022-07-29T05:22:16.494Z,11.43
2022-07-29T05:24:43.634Z,9.80
2022-07-29T05:27:10.819Z,10.00
2022-07-29T05:29:43.736Z,10.90
2022-07-29T05:34:51.075Z,9.68
2022-07-29T05:37:20.961Z,9.90
2022-07-29T05:39:50.402Z,9.50
2022-07-29T05:42:17.968Z,9.15
2022-07-29T05:44:45.313Z,9.57
2022-07-29T05:47:12.658Z,9.50
2022-07-29T05:49:39.856Z,10.90
2022-07-29T05:52:07.037Z,9.55
2022-07-29T05:54:35.592Z,9.95
2022-07-29T05:57:02.823Z,10.40
2022-07-29T05:59:30.703Z,9.30
2022-07-29T06:01:58.631Z,9.60
2022-07-29T06:04:25.960Z,8.48
2022-07-29T06:06:53.274Z,10.07
2022-07-29T06:09:20.450Z,9.23
2022-07-29T06:11:49.038Z,10.10
2022-07-29T06:14:16.468Z,10.55
2022-07-29T06:16:43.821Z,10.43
2022-07-29T06:19:10.994Z,9.65
2022-07-29T06:21:42.254Z,8.98
2022-07-29T06:24:09.487Z,8.68
2022-07-29T06:26:39.599Z,8.02
2022-07-29T06:29:09.105Z,7.47
2022-07-29T06:31:36.262Z,7.47
2022-07-29T06:34:03.611Z,7.35
2022-07-29T06:36:31.307Z,7.38
2022-07-29T06:38:58.932Z,6.60
2022-07-29T06:41:27.102Z,5.68
2022-07-29T06:43:55.401Z,6.28
2022-07-29T06:46:25.772Z,5.78
2022-07-29T06:48:53.524Z,6.30
2022-07-29T06:51:23.213Z,5.35
2022-07-29T06:54:00.494Z,5.95
2022-07-29T06:56:31.150Z,5.38
2022-07-29T06:58:58.316Z,5.53
2022-07-29T07:01:26.973Z,5.80
2022-07-29T07:03:54.166Z,5.68
2022-07-29T07:06:21.422Z,5.43
2022-07-29T07:08:48.802Z,4.85
2022-07-29T07:11:16.078Z,5.35
2022-07-29T07:13:43.187Z,6.20
2022-07-29T07:16:10.482Z,5.55
2022-07-29T07:18:39.109Z,5.20
2022-07-29T07:21:06.743Z,4.40
2022-07-29T07:23:33.926Z,4.60
2022-07-29T07:26:01.201Z,4.72
2022-07-29T07:28:28.457Z,3.88
2022-07-29T07:30:55.758Z,4.88
2022-07-29T07:33:22.910Z,4.85
2022-07-29T07:35:51.517Z,4.20
2022-07-29T07:38:18.690Z,3.83
2022-07-29T07:40:47.435Z,3.08
2022-07-29T07:43:15.839Z,3.42
2022-07-29T07:45:43.174Z,3.10
2022-07-29T07:48:11.245Z,3.35
2022-07-29T07:50:38.563Z,3.17
2022-07-29T07:53:07.406Z,2.78
2022-07-29T07:55:53.451Z,2.08
2022-07-29T07:58:22.058Z,2.40
2022-07-29T08:00:49.431Z,2.60
2022-07-29T08:03:17.425Z,2.10
2022-07-29T08:05:44.922Z,2.50
2022-07-29T08:08:13.555Z,2.05
2022-07-29T08:11:00.613Z,2.20
2022-07-29T08:13:31.573Z,2.10
2022-07-29T08:16:01.824Z,2.08
2022-07-29T08:18:31.042Z,2.30
2022-07-29T08:20:59.262Z,2.22
2022-07-29T08:23:46.271Z,2.75
2022-07-29T08:26:17.173Z,2.38
2022-07-29T08:28:46.924Z,2.40
2022-07-29T08:31:15.287Z,2.67
2022-07-29T08:33:42.990Z,2.55
2022-07-29T08:36:10.680Z,2.35
2022-07-29T08:38:39.323Z,2.40
2022-07-29T08:41:07.146Z,2.40
2022-07-29T08:43:38.314Z,2.38
2022-07-29T08:46:05.846Z,2.08
2022-07-29T08:48:34.011Z,2.72
2022-07-29T08:51:02.514Z,2.50
2022-07-29T08:53:32.920Z,2.30
2022-07-29T08:56:03.010Z,2.17
2022-07-29T08:58:36.755Z,2.60
2022-07-29T09:03:37.121Z,2.30
2022-07-29T09:06:04.935Z,2.42
2022-07-29T09:08:32.664Z,7.53
2022-07-29T09:11:03.996Z,3.97
2022-07-29T09:13:32.635Z,3.22
2022-07-29T09:16:00.081Z,2.80
2022-07-29T09:18:38.270Z,2.22
2022-07-29T09:21:25.362Z,2.75
2022-07-29T09:24:04.841Z,2.85
2022-07-29T09:26:34.983Z,2.33
2022-07-29T09:29:09.360Z,2.90
2022-07-29T09:31:39.421Z,3.97
2022-07-29T09:34:08.292Z,4.28
2022-07-29T09:36:41.402Z,3.05
2022-07-29T09:39:08.891Z,3.05
2022-07-29T09:41:48.004Z,2.83
2022-07-29T09:44:15.864Z,2.55
2022-07-29T09:46:54.810Z,2.70
2022-07-29T09:49:22.296Z,2.88
2022-07-29T09:52:00.386Z,2.10
2022-07-29T09:54:28.980Z,2.40
2022-07-29T09:56:57.919Z,2.78
2022-07-29T09:59:27.575Z,2.38
2022-07-29T10:01:55.312Z,2.55
2022-07-29T10:04:22.854Z,2.50
2022-07-29T10:07:04.291Z,2.50
2022-07-29T10:09:32.490Z,3.13
2022-07-29T10:12:14.778Z,19.15
2022-07-29T10:14:42.969Z,3.30
2022-07-29T10:17:12.735Z,2.72
2022-07-29T10:19:40.753Z,2.60
2022-07-29T10:22:10.718Z,2.10
2022-07-29T10:24:41.055Z,2.40
2022-07-29T10:27:10.374Z,2.58
2022-07-29T10:29:37.792Z,2.85
2022-07-29T10:32:23.397Z,2.75
2022-07-29T10:35:10.897Z,3.03
2022-07-29T10:37:55.038Z,2.42
2022-07-29T10:40:47.693Z,2.22
2022-07-29T10:43:23.754Z,2.42
2022-07-29T10:45:58.074Z,2.33
2022-07-29T10:48:26.255Z,2.67
2022-07-29T10:50:55.458Z,2.25
2022-07-29T10:53:22.948Z,2.40
2022-07-29T10:55:52.182Z,2.10
2022-07-29T10:58:24.771Z,2.22
2022-07-29T11:00:53.692Z,2.10
2022-07-29T11:03:50.421Z,2.35
2022-07-29T11:06:28.032Z,2.10
2022-07-29T11:12:44.461Z,2.55
2022-07-29T11:15:21.866Z,2.38
2022-07-29T11:18:07.839Z,2.55
2022-07-29T11:20:44.214Z,2.70
2022-07-29T11:23:26.277Z,2.08
2022-07-29T11:26:26.757Z,2.20
2022-07-29T11:29:03.722Z,2.67
2022-07-29T11:31:37.296Z,2.65
2022-07-29T11:34:30.389Z,6.47
2022-07-29T11:37:27.924Z,10.32
2022-07-29T11:40:18.428Z,2.50
2022-07-29T11:42:52.710Z,2.50
2022-07-29T11:48:29.197Z,2.30
2022-07-29T11:51:00.331Z,2.25
2022-07-29T11:53:29.288Z,2.15
2022-07-29T11:56:00.941Z,2.42
2022-07-29T11:58:30.375Z,2.28
2022-07-29T12:00:58.561Z,2.50
2022-07-29T12:06:07.578Z,2.30
2022-07-29T12:08:42.076Z,2.65
2022-07-29T12:13:43.333Z,2.10
2022-07-29T12:16:10.595Z,2.28
2022-07-29T12:18:43.366Z,2.53
2022-07-29T12:21:12.560Z,2.30
2022-07-29T12:23:39.810Z,5.97
2022-07-29T12:26:10.685Z,2.30
2022-07-29T12:28:49.942Z,2.13
2022-07-29T12:31:43.167Z,2.42
2022-07-29T12:34:06.049Z,2.25
2022-07-29T12:36:33.717Z,1.92
2022-07-29T12:39:01.087Z,2.08
2022-07-29T12:41:29.251Z,2.42
2022-07-29T12:43:57.003Z,2.03
2022-07-29T12:46:24.355Z,4.40
2022-07-29T12:48:57.575Z,2.58
2022-07-29T12:51:32.341Z,2.40
2022-07-29T12:54:08.112Z,2.28
2022-07-29T12:56:44.453Z,2.47
2022-07-29T12:59:14.559Z,2.30
2022-07-29T13:01:41.894Z,2.45
2022-07-29T13:04:09.074Z,2.30
2022-07-29T13:06:41.188Z,2.13
2022-07-29T13:09:11.816Z,2.20
2022-07-29T13:11:45.304Z,4.32
2022-07-29T13:14:32.656Z,2.65
2022-07-29T13:17:06.184Z,2.60
2022-07-29T13:19:38.626Z,2.60
2022-07-29T13:22:07.733Z,2.17
2022-07-29T13:24:35.454Z,2.70
2022-07-29T13:27:05.534Z,2.35
2022-07-29T13:29:33.307Z,2.58
2022-07-29T13:32:00.898Z,2.70
2022-07-29T13:34:28.408Z,2.30
2022-07-29T13:36:55.569Z,2.38
2022-07-29T13:39:24.074Z,3.78
2022-07-29T13:41:52.135Z,13.50
2022-07-29T13:44:19.245Z,5.47
2022-07-29T13:46:46.474Z,2.20
2022-07-29T13:49:13.728Z,2.20
2022-07-29T13:51:41.003Z,1.90
2022-07-29T13:54:08.288Z,2.35
2022-07-29T13:56:36.844Z,5.35
2022-07-29T13:59:04.210Z,2.78
2022-07-29T14:01:31.867Z,2.70
2022-07-29T14:03:59.239Z,2.10
2022-07-29T14:06:26.477Z,2.13
2022-07-29T14:08:53.778Z,2.20
2022-07-29T14:11:21.090Z,2.53
2022-07-29T14:13:49.618Z,2.50
2022-07-29T14:16:17.122Z,2.50
2022-07-29T14:18:44.423Z,2.28
2022-07-29T14:21:11.630Z,2.30
2022-07-29T14:23:38.817Z,3.42
2022-07-29T14:26:13.201Z,2.65
2022-07-29T14:28:46.174Z,1.92
2022-07-29T14:31:14.683Z,3.00
2022-07-29T14:33:42.504Z,2.17
2022-07-29T14:36:13.605Z,2.50
2022-07-29T14:38:41.550Z,2.58
2022-07-29T14:41:08.814Z,2.75
2022-07-29T14:43:36.303Z,2.25
2022-07-29T14:46:08.205Z,2.00
2022-07-29T14:48:37.326Z,2.30
2022-07-29T14:51:05.236Z,2.25
2022-07-29T14:53:32.833Z,2.50
2022-07-29T14:56:15.082Z,2.45
2022-07-29T14:58:51.785Z,2.35
2022-07-29T15:01:19.372Z,2.30
2022-07-29T15:03:48.126Z,2.55
2022-07-29T15:06:15.323Z,2.50
2022-07-29T15:08:42.514Z,2.30
2022-07-29T15:11:09.733Z,2.47
2022-07-29T15:13:36.890Z,2.33
2022-07-29T15:16:06.294Z,2.58
2022-07-29T15:18:33.450Z,2.75
2022-07-29T15:21:03.267Z,2.45
2022-07-29T15:23:30.692Z,2.55
2022-07-29T15:25:57.838Z,2.60
2022-07-29T15:28:25.069Z,2.50
2022-07-29T15:30:52.419Z,2.50
2022-07-29T15:33:19.566Z,2.67
2022-07-29T15:35:46.715Z,2.70
2022-07-29T15:38:16.593Z,2.53
2022-07-29T15:40:44.508Z,2.80
2022-07-29T15:43:11.697Z,3.47
2022-07-29T15:45:40.362Z,2.28
2022-07-29T15:48:09.757Z,2.67
2022-07-29T15:50:41.969Z,2.60
2022-07-29T15:53:09.089Z,2.80
2022-07-29T15:55:37.685Z,2.80
2022-07-29T15:58:04.837Z,2.70
2022-07-29T16:00:31.973Z,3.90
2022-07-29T16:02:59.114Z,3.78
2022-07-29T16:05:26.381Z,3.38
2022-07-29T16:07:53.514Z,3.13
2022-07-29T16:10:20.958Z,2.80
2022-07-29T16:12:49.622Z,2.53
2022-07-29T16:15:16.808Z,2.58
2022-07-29T16:17:44.371Z,2.70
2022-07-29T16:20:12.622Z,2.72
2022-07-29T16:22:41.215Z,2.70
2022-07-29T16:25:09.570Z,2.90
2022-07-29T16:27:37.776Z,3.67
2022-07-29T16:30:10.813Z,2.97
2022-07-29T16:32:38.297Z,2.85
2022-07-29T16:35:06.842Z,2.72
2022-07-29T16:37:35.569Z,2.85
2022-07-29T16:40:03.841Z,2.83
2022-07-29T16:42:45.952Z,2.60
2022-07-29T16:45:15.744Z,2.58
2022-07-29T16:47:42.954Z,3.40
2022-07-29T16:50:10.222Z,2.85
2022-07-29T16:52:38.361Z,2.92
2022-07-29T16:55:06.452Z,3.08
2022-07-29T16:57:33.701Z,3.10
2022-07-29T17:00:00.869Z,3.08
2022-07-29T17:02:29.443Z,3.28
2022-07-29T17:04:56.647Z,3.10
2022-07-29T17:07:23.846Z,3.28
2022-07-29T17:09:55.196Z,3.00
2022-07-29T17:12:23.158Z,3.17
2022-07-29T17:14:50.507Z,3.08
2022-07-29T17:17:20.673Z,3.05
2022-07-29T17:20:07.819Z,2.97
2022-07-29T17:22:35.162Z,3.03
2022-07-29T17:25:02.511Z,3.00
2022-07-29T17:27:29.754Z,3.20
2022-07-29T17:29:56.979Z,2.97
2022-07-29T17:32:24.333Z,3.00
2022-07-29T17:34:51.728Z,3.17
2022-07-29T17:37:20.408Z,2.78
2022-07-29T17:39:48.354Z,2.75
2022-07-29T17:42:15.533Z,9.65
2022-07-29T17:44:43.861Z,3.70
2022-07-29T17:47:11.357Z,2.90
2022-07-29T17:49:44.287Z,2.92
2022-07-29T17:52:11.569Z,2.85
2022-07-29T17:54:40.181Z,2.80
2022-07-29T17:57:07.333Z,3.33
2022-07-29T17:59:34.436Z,19.10
2022-07-29T18:02:01.830Z,2.80
2022-07-29T18:04:31.013Z,2.65
2022-07-29T18:06:58.316Z,2.92
2022-07-29T18:09:25.698Z,2.97
2022-07-29T18:11:54.306Z,4.88
2022-07-29T18:14:21.465Z,12.25
2022-07-29T18:16:48.701Z,3.40
2022-07-29T18:19:16.206Z,3.03
2022-07-29T18:21:51.025Z,2.95
2022-07-29T18:24:22.123Z,2.83
2022-07-29T18:26:49.278Z,3.03
2022-07-29T18:29:17.767Z,2.70
2022-07-29T18:31:44.970Z,3.42
2022-07-29T18:34:12.260Z,3.05
2022-07-29T18:36:39.527Z,2.80
2022-07-29T18:39:06.659Z,2.78
2022-07-29T18:41:34.025Z,3.28
2022-07-29T18:44:01.247Z,3.05
2022-07-29T18:46:29.862Z,3.00
2022-07-29T18:48:57.521Z,3.17
2022-07-29T18:51:24.695Z,3.20
2022-07-29T18:53:52.623Z,2.60
2022-07-29T18:56:19.886Z,2.97
2022-07-29T18:58:47.012Z,2.70
2022-07-29T19:01:16.640Z,3.17
2022-07-29T19:03:45.319Z,3.08
2022-07-29T19:06:12.918Z,3.17
2022-07-29T19:08:40.101Z,3.38
2022-07-29T19:11:07.578Z,3.40
2022-07-29T19:13:34.799Z,2.80
2022-07-29T19:16:01.913Z,3.03
2022-07-29T19:18:29.360Z,3.20
2022-07-29T19:20:57.870Z,3.25
2022-07-29T19:23:25.593Z,3.58
2022-07-29T19:25:53.790Z,3.20
2022-07-29T19:28:21.578Z,3.38
2022-07-29T19:30:48.882Z,3.20
2022-07-29T19:33:17.754Z,3.38
2022-07-29T19:35:45.361Z,2.92
2022-07-29T19:38:14.404Z,3.40
2022-07-29T19:40:41.669Z,3.47
2022-07-29T19:43:51.727Z,3.28
2022-07-29T19:45:57.020Z,3.10
2022-07-29T19:48:24.257Z,3.13
2022-07-29T19:50:51.669Z,3.53
2022-07-29T19:53:20.291Z,3.20
2022-07-29T19:55:47.437Z,3.25
2022-07-29T19:58:15.117Z,3.25
2022-07-29T20:00:42.750Z,3.00
2022-07-29T20:03:10.874Z,3.00
2022-07-29T20:05:38.102Z,3.40
2022-07-29T20:08:06.290Z,3.25
2022-07-29T20:10:34.852Z,3.33
2022-07-29T20:13:01.957Z,3.20
2022-07-29T20:15:29.247Z,3.20
2022-07-29T20:17:57.456Z,3.15
2022-07-29T20:20:25.353Z,3.25
2022-07-29T20:22:53.073Z,3.17
2022-07-29T20:25:20.369Z,2.92
2022-07-29T20:27:52.269Z,3.15
2022-07-29T20:30:19.913Z,3.05
2022-07-29T20:32:48.505Z,2.95
2022-07-29T20:35:15.855Z,3.15
2022-07-29T20:37:52.175Z,3.03
2022-07-29T20:40:24.775Z,2.90
2022-07-29T20:42:53.419Z,3.30
2022-07-29T20:45:20.835Z,3.17
2022-07-29T20:47:48.101Z,2.90
2022-07-29T20:50:15.485Z,3.28
2022-07-29T20:52:44.120Z,2.83
2022-07-29T20:55:11.428Z,3.25
2022-07-29T20:57:39.859Z,3.50
2022-07-29T21:00:10.085Z,3.50
2022-07-29T21:02:37.313Z,3.78
2022-07-29T21:05:05.001Z,3.85
2022-07-29T21:07:32.099Z,3.30
2022-07-29T21:09:59.258Z,3.53
2022-07-29T21:12:26.437Z,3.55
2022-07-29T21:14:53.567Z,3.60
2022-07-29T21:17:22.399Z,3.22
2022-07-29T21:19:52.660Z,3.22
2022-07-29T21:22:21.868Z,3.17
2022-07-29T21:24:49.367Z,2.97
2022-07-29T21:27:35.502Z,3.55
2022-07-29T21:30:07.162Z,2.85
2022-07-29T21:32:36.105Z,2.78
2022-07-29T21:35:18.188Z,3.33
2022-07-29T21:37:51.510Z,3.60
2022-07-29T21:40:18.707Z,3.13
2022-07-29T21:42:46.018Z,3.10
2022-07-29T21:45:15.954Z,3.13
2022-07-29T21:47:44.494Z,3.33
2022-07-29T21:50:11.627Z,3.05
2022-07-29T21:52:38.997Z,3.42
2022-07-29T21:55:08.046Z,3.10
2022-07-29T21:57:38.122Z,3.38
2022-07-29T22:00:06.793Z,3.63
2022-07-29T22:02:39.749Z,2.95
2022-07-29T22:05:09.681Z,3.35
2022-07-29T22:07:54.250Z,3.40
2022-07-29T22:10:24.570Z,3.67
2022-07-29T22:12:52.242Z,3.78
2022-07-29T22:15:19.980Z,3.30
2022-07-29T22:17:47.833Z,3.50
2022-07-29T22:20:16.646Z,3.83
2022-07-29T22:22:43.923Z,3.45
2022-07-29T22:25:11.834Z,3.80
2022-07-29T22:27:39.407Z,3.38
2022-07-29T22:30:08.330Z,3.50
2022-07-29T22:32:35.795Z,3.55
2022-07-29T22:35:03.089Z,3.45
2022-07-29T22:37:31.646Z,3.85
2022-07-29T22:39:58.841Z,3.35
2022-07-29T22:42:25.988Z,3.42
2022-07-29T22:44:53.208Z,3.53
2022-07-29T22:47:38.742Z,3.70
2022-07-29T22:50:08.236Z,3.60
2022-07-29T22:52:37.009Z,3.50
2022-07-29T22:55:04.697Z,3.78
2022-07-29T22:57:31.955Z,3.53
2022-07-29T23:00:01.721Z,3.80
2022-07-29T23:02:29.346Z,3.60
2022-07-29T23:04:56.715Z,4.35
2022-07-29T23:07:24.135Z,3.85
2022-07-29T23:09:52.684Z,3.80
2022-07-29T23:12:19.803Z,4.32
2022-07-29T23:14:47.081Z,4.28
2022-07-29T23:17:14.266Z,3.83
2022-07-29T23:19:41.398Z,4.43
2022-07-29T23:22:08.777Z,3.90
2022-07-29T23:24:35.954Z,4.07
2022-07-29T23:27:04.752Z,4.13
2022-07-29T23:29:36.659Z,4.25
2022-07-29T23:32:04.597Z,4.53
2022-07-29T23:34:31.756Z,4.18
2022-07-29T23:36:59.249Z,4.45
2022-07-29T23:39:26.523Z,4.03
2022-07-29T23:41:53.754Z,3.78
2022-07-29T23:44:22.313Z,4.55
2022-07-29T23:46:49.676Z,4.45
2022-07-29T23:49:16.936Z,4.10
2022-07-29T23:51:44.142Z,4.60
2022-07-29T23:54:11.348Z,4.40
2022-07-29T23:56:38.453Z,4.53
2022-07-29T23:59:06.137Z,4.40
